sensor_id;sensor_type;location;lat;lon;timestamp;pressure;altitude;pressure_sealevel;temperature
64624;BMP280;51031;50.912;9.242;2022-07-29T00:00:10;99123.13;;;27.33
64624;BMP280;51031;50.912;9.242;2022-07-29T00:00:26;99125.63;;;27.35
64624;BMP280;51031;50.912;9.242;2022-07-29T00:00:42;99123.97;;;27.34
64624;BMP280;51031;50.912;9.242;2022-07-29T00:01:02;99125.00;;;27.33
64624;BMP280;51031;50.912;9.242;2022-07-29T00:01:17;99120.81;;;27.30
64624;BMP280;51031;50.912;9.242;2022-07-29T00:01:33;99123.66;;;27.29
64624;BMP280;51031;50.912;9.242;2022-07-29T00:01:49;99129.03;;;27.29
64624;BMP280;51031;50.912;9.242;2022-07-29T00:02:07;99129.03;;;27.29
64624;BMP280;51031;50.912;9.242;2022-07-29T00:02:27;99128.19;;;27.28
64624;BMP280;51031;50.912;9.242;2022-07-29T00:02:42;99129.03;;;27.29
64624;BMP280;51031;50.912;9.242;2022-07-29T00:02:58;99138.09;;;27.28
64624;BMP280;51031;50.912;9.242;2022-07-29T00:03:14;99132.72;;;27.28
64624;BMP280;51031;50.912;9.242;2022-07-29T00:03:30;99139.81;;;27.29
64624;BMP280;51031;50.912;9.242;2022-07-29T00:03:46;99135.28;;;27.30
64624;BMP280;51031;50.912;9.242;2022-07-29T00:04:03;99132.59;;;27.30
64624;BMP280;51031;50.912;9.242;2022-07-29T00:04:19;99133.22;;;27.31
64624;BMP280;51031;50.912;9.242;2022-07-29T00:04:35;99139.44;;;27.32
64624;BMP280;51031;50.912;9.242;2022-07-29T00:04:51;99146.53;;;27.33
64624;BMP280;51031;50.912;9.242;2022-07-29T00:05:08;99138.25;;;27.34
64624;BMP280;51031;50.912;9.242;2022-07-29T00:05:28;99135.56;;;27.34
64624;BMP280;51031;50.912;9.242;2022-07-29T00:05:44;99129.34;;;27.34
64624;BMP280;51031;50.912;9.242;2022-07-29T00:06:18;99130.00;;;27.36
64624;BMP280;51031;50.912;9.242;2022-07-29T00:06:36;99131.84;;;27.35
64624;BMP280;51031;50.912;9.242;2022-07-29T00:06:53;99138.25;;;27.34
64624;BMP280;51031;50.912;9.242;2022-07-29T00:07:10;99133.69;;;27.35
64624;BMP280;51031;50.912;9.242;2022-07-29T00:07:25;99125.63;;;27.35
64624;BMP280;51031;50.912;9.242;2022-07-29T00:07:41;99131.00;;;27.35
64624;BMP280;51031;50.912;9.242;2022-07-29T00:07:57;99132.69;;;27.36
64624;BMP280;51031;50.912;9.242;2022-07-29T00:08:13;99129.16;;;27.35
64624;BMP280;51031;50.912;9.242;2022-07-29T00:08:30;99132.50;;;27.37
64624;BMP280;51031;50.912;9.242;2022-07-29T00:08:46;99137.06;;;27.37
64624;BMP280;51031;50.912;9.242;2022-07-29T00:09:02;99132.50;;;27.37
64624;BMP280;51031;50.912;9.242;2022-07-29T00:09:18;99123.41;;;27.38
64624;BMP280;51031;50.912;9.242;2022-07-29T00:09:35;99126.09;;;27.38
64624;BMP280;51031;50.912;9.242;2022-07-29T00:09:51;99132.31;;;27.39
64624;BMP280;51031;50.912;9.242;2022-07-29T00:10:07;99130.47;;;27.39
64624;BMP280;51031;50.912;9.242;2022-07-29T00:10:23;99125.91;;;27.40
64624;BMP280;51031;50.912;9.242;2022-07-29T00:10:39;99124.88;;;27.41
64624;BMP280;51031;50.912;9.242;2022-07-29T00:10:55;99124.69;;;27.42
64624;BMP280;51031;50.912;9.242;2022-07-29T00:11:11;99127.22;;;27.44
64624;BMP280;51031;50.912;9.242;2022-07-29T00:11:27;99130.75;;;27.44
64624;BMP280;51031;50.912;9.242;2022-07-29T00:11:43;99128.03;;;27.44
64624;BMP280;51031;50.912;9.242;2022-07-29T00:12:00;99127.03;;;27.45
64624;BMP280;51031;50.912;9.242;2022-07-29T00:12:16;99129.53;;;27.47
64624;BMP280;51031;50.912;9.242;2022-07-29T00:12:33;99129.53;;;27.47
64624;BMP280;51031;50.912;9.242;2022-07-29T00:12:49;99131.00;;;27.49
64624;BMP280;51031;50.912;9.242;2022-07-29T00:13:05;99127.31;;;27.50
64624;BMP280;51031;50.912;9.242;2022-07-29T00:13:20;99126.50;;;27.50
64624;BMP280;51031;50.912;9.242;2022-07-29T00:13:36;99126.50;;;27.50
64624;BMP280;51031;50.912;9.242;2022-07-29T00:13:53;99120.06;;;27.51
64624;BMP280;51031;50.912;9.242;2022-07-29T00:14:09;99124.41;;;27.52
64624;BMP280;51031;50.912;9.242;2022-07-29T00:14:25;99125.47;;;27.51
64624;BMP280;51031;50.912;9.242;2022-07-29T00:14:42;99123.59;;;27.51
64624;BMP280;51031;50.912;9.242;2022-07-29T00:15:00;99125.25;;;27.52
64624;BMP280;51031;50.912;9.242;2022-07-29T00:15:15;99120.69;;;27.53
64624;BMP280;51031;50.912;9.242;2022-07-29T00:15:31;99123.41;;;27.53
64624;BMP280;51031;50.912;9.242;2022-07-29T00:15:47;99124.25;;;27.53
64624;BMP280;51031;50.912;9.242;2022-07-29T00:16:04;99126.94;;;27.53
64624;BMP280;51031;50.912;9.242;2022-07-29T00:16:20;99120.53;;;27.54
64624;BMP280;51031;50.912;9.242;2022-07-29T00:16:38;99122.41;;;27.54
64624;BMP280;51031;50.912;9.242;2022-07-29T00:16:56;99122.41;;;27.54
64624;BMP280;51031;50.912;9.242;2022-07-29T00:17:12;99116.19;;;27.53
64624;BMP280;51031;50.912;9.242;2022-07-29T00:17:28;99118.00;;;27.53
64624;BMP280;51031;50.912;9.242;2022-07-29T00:17:44;99119.72;;;27.54
64624;BMP280;51031;50.912;9.242;2022-07-29T00:18:00;99120.69;;;27.53
64624;BMP280;51031;50.912;9.242;2022-07-29T00:18:16;99119.03;;;27.52
64624;BMP280;51031;50.912;9.242;2022-07-29T00:18:32;99118.22;;;27.51
64624;BMP280;51031;50.912;9.242;2022-07-29T00:18:50;99121.72;;;27.52
64624;BMP280;51031;50.912;9.242;2022-07-29T00:19:06;99119.25;;;27.50
64624;BMP280;51031;50.912;9.242;2022-07-29T00:19:23;99119.03;;;27.52
64624;BMP280;51031;50.912;9.242;2022-07-29T00:19:38;99114.69;;;27.51
64624;BMP280;51031;50.912;9.242;2022-07-29T00:19:54;99116.34;;;27.52
64624;BMP280;51031;50.912;9.242;2022-07-29T00:20:10;99113.66;;;27.52
64624;BMP280;51031;50.912;9.242;2022-07-29T00:20:26;99115.31;;;27.53
64624;BMP280;51031;50.912;9.242;2022-07-29T00:20:43;99112.63;;;27.53
64624;BMP280;51031;50.912;9.242;2022-07-29T00:20:59;99115.97;;;27.55
64624;BMP280;51031;50.912;9.242;2022-07-29T00:21:14;99107.06;;;27.54
64624;BMP280;51031;50.912;9.242;2022-07-29T00:21:30;99115.97;;;27.55
64624;BMP280;51031;50.912;9.242;2022-07-29T00:21:46;99109.56;;;27.56
64624;BMP280;51031;50.912;9.242;2022-07-29T00:22:02;99113.09;;;27.56
64624;BMP280;51031;50.912;9.242;2022-07-29T00:22:20;99120.34;;;27.56
64624;BMP280;51031;50.912;9.242;2022-07-29T00:22:37;99109.56;;;27.56
64624;BMP280;51031;50.912;9.242;2022-07-29T00:22:52;99113.94;;;27.57
64624;BMP280;51031;50.912;9.242;2022-07-29T00:23:10;99117.47;;;27.57
64624;BMP280;51031;50.912;9.242;2022-07-29T00:23:26;99111.25;;;27.57
64624;BMP280;51031;50.912;9.242;2022-07-29T00:23:43;99115.63;;;27.58
64624;BMP280;51031;50.912;9.242;2022-07-29T00:23:59;99109.41;;;27.57
64624;BMP280;51031;50.912;9.242;2022-07-29T00:24:14;99112.09;;;27.57
64624;BMP280;51031;50.912;9.242;2022-07-29T00:24:30;99106.72;;;27.57
64624;BMP280;51031;50.912;9.242;2022-07-29T00:24:47;99105.88;;;27.57
64624;BMP280;51031;50.912;9.242;2022-07-29T00:25:03;99109.41;;;27.57
64624;BMP280;51031;50.912;9.242;2022-07-29T00:25:20;99102.16;;;27.58
64624;BMP280;51031;50.912;9.242;2022-07-29T00:25:36;99107.34;;;27.59
64624;BMP280;51031;50.912;9.242;2022-07-29T00:25:52;99110.03;;;27.59
64624;BMP280;51031;50.912;9.242;2022-07-29T00:26:08;99104.66;;;27.59
64624;BMP280;51031;50.912;9.242;2022-07-29T00:26:23;99105.47;;;27.59
64624;BMP280;51031;50.912;9.242;2022-07-29T00:26:43;99102.97;;;27.58
64624;BMP280;51031;50.912;9.242;2022-07-29T00:26:58;99099.47;;;27.58
64624;BMP280;51031;50.912;9.242;2022-07-29T00:27:14;99100.50;;;27.57
64624;BMP280;51031;50.912;9.242;2022-07-29T00:27:30;99105.88;;;27.57
64624;BMP280;51031;50.912;9.242;2022-07-29T00:27:46;99105.88;;;27.57
64624;BMP280;51031;50.912;9.242;2022-07-29T00:28:03;99100.50;;;27.57
64624;BMP280;51031;50.912;9.242;2022-07-29T00:28:19;99105.88;;;27.57
64624;BMP280;51031;50.912;9.242;2022-07-29T00:28:34;99096.94;;;27.56
64624;BMP280;51031;50.912;9.242;2022-07-29T00:28:50;99101.31;;;27.57
64624;BMP280;51031;50.912;9.242;2022-07-29T00:29:06;99095.28;;;27.55
64624;BMP280;51031;50.912;9.242;2022-07-29T00:29:22;99097.13;;;27.55
64624;BMP280;51031;50.912;9.242;2022-07-29T00:29:39;99100.88;;;27.54
64624;BMP280;51031;50.912;9.242;2022-07-29T00:29:54;99099.16;;;27.53
64624;BMP280;51031;50.912;9.242;2022-07-29T00:30:11;99100.03;;;27.53
64624;BMP280;51031;50.912;9.242;2022-07-29T00:30:27;99098.16;;;27.54
64624;BMP280;51031;50.912;9.242;2022-07-29T00:30:43;99096.31;;;27.54
64624;BMP280;51031;50.912;9.242;2022-07-29T00:30:58;99101.69;;;27.54
64624;BMP280;51031;50.912;9.242;2022-07-29T00:31:17;99095.47;;;27.54
64624;BMP280;51031;50.912;9.242;2022-07-29T00:31:32;99101.84;;;27.53
64624;BMP280;51031;50.912;9.242;2022-07-29T00:31:49;99095.47;;;27.54
64624;BMP280;51031;50.912;9.242;2022-07-29T00:32:05;99096.47;;;27.53
64624;BMP280;51031;50.912;9.242;2022-07-29T00:32:21;99087.56;;;27.52
64624;BMP280;51031;50.912;9.242;2022-07-29T00:32:38;99092.13;;;27.52
64624;BMP280;51031;50.912;9.242;2022-07-29T00:32:54;99094.19;;;27.50
64624;BMP280;51031;50.912;9.242;2022-07-29T00:33:09;99088.13;;;27.48
64624;BMP280;51031;50.912;9.242;2022-07-29T00:33:25;99090.63;;;27.49
64624;BMP280;51031;50.912;9.242;2022-07-29T00:33:41;99093.53;;;27.48
64624;BMP280;51031;50.912;9.242;2022-07-29T00:33:57;99092.50;;;27.49
64624;BMP280;51031;50.912;9.242;2022-07-29T00:34:13;99097.88;;;27.49
64624;BMP280;51031;50.912;9.242;2022-07-29T00:34:44;99093.31;;;27.49
64624;BMP280;51031;50.912;9.242;2022-07-29T00:35:18;99092.31;;;27.50
64624;BMP280;51031;50.912;9.242;2022-07-29T00:35:53;99095.19;;;27.49
64624;BMP280;51031;50.912;9.242;2022-07-29T00:36:09;99092.50;;;27.49
64624;BMP280;51031;50.912;9.242;2022-07-29T00:36:24;99089.81;;;27.49
64624;BMP280;51031;50.912;9.242;2022-07-29T00:36:40;99091.50;;;27.50
64624;BMP280;51031;50.912;9.242;2022-07-29T00:36:56;99090.63;;;27.49
64624;BMP280;51031;50.912;9.242;2022-07-29T00:37:12;99093.31;;;27.49
64624;BMP280;51031;50.912;9.242;2022-07-29T00:37:27;99089.63;;;27.50
64624;BMP280;51031;50.912;9.242;2022-07-29T00:37:44;99091.50;;;27.50
64624;BMP280;51031;50.912;9.242;2022-07-29T00:38:00;99087.78;;;27.51
64624;BMP280;51031;50.912;9.242;2022-07-29T00:38:18;99088.81;;;27.50
64624;BMP280;51031;50.912;9.242;2022-07-29T00:38:34;99090.47;;;27.51
64624;BMP280;51031;50.912;9.242;2022-07-29T00:38:50;99090.47;;;27.51
64624;BMP280;51031;50.912;9.242;2022-07-29T00:39:07;99094.00;;;27.51
64624;BMP280;51031;50.912;9.242;2022-07-29T00:39:23;99092.31;;;27.50
64624;BMP280;51031;50.912;9.242;2022-07-29T00:39:39;99091.28;;;27.51
64624;BMP280;51031;50.912;9.242;2022-07-29T00:39:55;99090.47;;;27.51
64624;BMP280;51031;50.912;9.242;2022-07-29T00:40:11;99094.81;;;27.52
64624;BMP280;51031;50.912;9.242;2022-07-29T00:40:27;99093.16;;;27.51
64624;BMP280;51031;50.912;9.242;2022-07-29T00:40:44;99086.75;;;27.52
64624;BMP280;51031;50.912;9.242;2022-07-29T00:41:00;99081.34;;;27.52
64624;BMP280;51031;50.912;9.242;2022-07-29T00:41:17;99085.91;;;27.51
64624;BMP280;51031;50.912;9.242;2022-07-29T00:41:33;99082.56;;;27.49
64624;BMP280;51031;50.912;9.242;2022-07-29T00:41:49;99080.06;;;27.48
64624;BMP280;51031;50.912;9.242;2022-07-29T00:42:06;99080.06;;;27.48
64624;BMP280;51031;50.912;9.242;2022-07-29T00:42:23;99079.22;;;27.47
64624;BMP280;51031;50.912;9.242;2022-07-29T00:42:42;99082.75;;;27.48
64624;BMP280;51031;50.912;9.242;2022-07-29T00:42:58;99080.06;;;27.48
64624;BMP280;51031;50.912;9.242;2022-07-29T00:43:17;99082.97;;;27.46
64624;BMP280;51031;50.912;9.242;2022-07-29T00:43:32;99079.41;;;27.46
64624;BMP280;51031;50.912;9.242;2022-07-29T00:43:48;99083.97;;;27.45
64624;BMP280;51031;50.912;9.242;2022-07-29T00:44:04;99082.09;;;27.46
64624;BMP280;51031;50.912;9.242;2022-07-29T00:44:20;99083.13;;;27.45
64624;BMP280;51031;50.912;9.242;2022-07-29T00:44:37;99079.41;;;27.46
64624;BMP280;51031;50.912;9.242;2022-07-29T00:44:53;99082.09;;;27.46
64624;BMP280;51031;50.912;9.242;2022-07-29T00:45:13;99085.81;;;27.45
64624;BMP280;51031;50.912;9.242;2022-07-29T00:45:29;99073.41;;;27.44
64624;BMP280;51031;50.912;9.242;2022-07-29T00:45:45;99077.13;;;27.43
64624;BMP280;51031;50.912;9.242;2022-07-29T00:46:02;99080.81;;;27.42
64624;BMP280;51031;50.912;9.242;2022-07-29T00:46:19;99083.50;;;27.42
64624;BMP280;51031;50.912;9.242;2022-07-29T00:46:35;99077.28;;;27.41
64624;BMP280;51031;50.912;9.242;2022-07-29T00:46:51;99083.50;;;27.42
64624;BMP280;51031;50.912;9.242;2022-07-29T00:47:07;99080.19;;;27.40
64624;BMP280;51031;50.912;9.242;2022-07-29T00:47:25;99083.22;;;27.37
64624;BMP280;51031;50.912;9.242;2022-07-29T00:47:42;99081.56;;;27.36
64624;BMP280;51031;50.912;9.242;2022-07-29T00:47:58;99081.75;;;27.34
64624;BMP280;51031;50.912;9.242;2022-07-29T00:48:14;99080.91;;;27.34
64624;BMP280;51031;50.912;9.242;2022-07-29T00:48:29;99077.38;;;27.33
64624;BMP280;51031;50.912;9.242;2022-07-29T00:48:46;99077.38;;;27.33
64624;BMP280;51031;50.912;9.242;2022-07-29T00:49:02;99080.25;;;27.32
64624;BMP280;51031;50.912;9.242;2022-07-29T00:49:18;99078.59;;;27.31
64624;BMP280;51031;50.912;9.242;2022-07-29T00:49:34;99078.59;;;27.31
64624;BMP280;51031;50.912;9.242;2022-07-29T00:49:50;99076.91;;;27.30
64624;BMP280;51031;50.912;9.242;2022-07-29T00:50:08;99078.59;;;27.31
64624;BMP280;51031;50.912;9.242;2022-07-29T00:50:26;99075.22;;;27.29
64624;BMP280;51031;50.912;9.242;2022-07-29T00:50:42;99076.22;;;27.28
64624;BMP280;51031;50.912;9.242;2022-07-29T00:50:58;99085.31;;;27.27
64624;BMP280;51031;50.912;9.242;2022-07-29T00:51:16;99074.09;;;27.24
64624;BMP280;51031;50.912;9.242;2022-07-29T00:51:32;99079.66;;;27.22
64624;BMP280;51031;50.912;9.242;2022-07-29T00:51:48;99074.25;;;27.22
64624;BMP280;51031;50.912;9.242;2022-07-29T00:52:05;99075.13;;;27.23
64624;BMP280;51031;50.912;9.242;2022-07-29T00:52:21;99076.13;;;27.22
64624;BMP280;51031;50.912;9.242;2022-07-29T00:52:39;99076.97;;;27.22
64624;BMP280;51031;50.912;9.242;2022-07-29T00:52:55;99082.34;;;27.22
64624;BMP280;51031;50.912;9.242;2022-07-29T00:53:13;99085.03;;;27.22
64624;BMP280;51031;50.912;9.242;2022-07-29T00:53:33;99086.06;;;27.21
64624;BMP280;51031;50.912;9.242;2022-07-29T00:53:49;99076.31;;;27.20
64624;BMP280;51031;50.912;9.242;2022-07-29T00:54:07;99078.19;;;27.20
64624;BMP280;51031;50.912;9.242;2022-07-29T00:54:22;99081.72;;;27.20
64624;BMP280;51031;50.912;9.242;2022-07-29T00:54:39;99079.19;;;27.19
64624;BMP280;51031;50.912;9.242;2022-07-29T00:54:57;99073.34;;;27.15
64624;BMP280;51031;50.912;9.242;2022-07-29T00:55:14;99087.44;;;27.17
64624;BMP280;51031;50.912;9.242;2022-07-29T00:55:30;99078.72;;;27.15
64624;BMP280;51031;50.912;9.242;2022-07-29T00:55:46;99073.34;;;27.15
64624;BMP280;51031;50.912;9.242;2022-07-29T00:56:03;99071.69;;;27.14
64624;BMP280;51031;50.912;9.242;2022-07-29T00:56:19;99071.69;;;27.14
64624;BMP280;51031;50.912;9.242;2022-07-29T00:56:35;99079.13;;;27.12
64624;BMP280;51031;50.912;9.242;2022-07-29T00:56:51;99081.13;;;27.10
64624;BMP280;51031;50.912;9.242;2022-07-29T00:57:07;99070.56;;;27.09
64624;BMP280;51031;50.912;9.242;2022-07-29T00:57:23;99072.25;;;27.10
64624;BMP280;51031;50.912;9.242;2022-07-29T00:57:40;99076.78;;;27.09
64624;BMP280;51031;50.912;9.242;2022-07-29T00:57:58;99072.41;;;27.08
64624;BMP280;51031;50.912;9.242;2022-07-29T00:58:14;99069.91;;;27.07
64624;BMP280;51031;50.912;9.242;2022-07-29T00:58:31;99073.44;;;27.07
64624;BMP280;51031;50.912;9.242;2022-07-29T00:58:47;99069.91;;;27.07
64624;BMP280;51031;50.912;9.242;2022-07-29T00:59:03;99065.38;;;27.07
64624;BMP280;51031;50.912;9.242;2022-07-29T00:59:20;99071.56;;;27.08
64624;BMP280;51031;50.912;9.242;2022-07-29T00:59:36;99073.44;;;27.07
64624;BMP280;51031;50.912;9.242;2022-07-29T00:59:52;99068.06;;;27.07
64624;BMP280;51031;50.912;9.242;2022-07-29T01:00:10;99075.28;;;27.07
64624;BMP280;51031;50.912;9.242;2022-07-29T01:00:29;99068.25;;;27.06
64624;BMP280;51031;50.912;9.242;2022-07-29T01:00:46;99067.41;;;27.05
64624;BMP280;51031;50.912;9.242;2022-07-29T01:01:01;99070.28;;;27.04
64624;BMP280;51031;50.912;9.242;2022-07-29T01:01:19;99072.97;;;27.04
64624;BMP280;51031;50.912;9.242;2022-07-29T01:01:34;99071.09;;;27.04
64624;BMP280;51031;50.912;9.242;2022-07-29T01:01:50;99069.44;;;27.03
64624;BMP280;51031;50.912;9.242;2022-07-29T01:02:07;99065.72;;;27.04
64624;BMP280;51031;50.912;9.242;2022-07-29T01:02:23;99071.09;;;27.04
64624;BMP280;51031;50.912;9.242;2022-07-29T01:02:39;99074.81;;;27.03
64624;BMP280;51031;50.912;9.242;2022-07-29T01:02:54;99072.13;;;27.03
64624;BMP280;51031;50.912;9.242;2022-07-29T01:03:10;99068.41;;;27.04
64624;BMP280;51031;50.912;9.242;2022-07-29T01:03:26;99070.28;;;27.04
64624;BMP280;51031;50.912;9.242;2022-07-29T01:03:43;99069.44;;;27.03
64624;BMP280;51031;50.912;9.242;2022-07-29T01:03:59;99064.25;;;27.02
64624;BMP280;51031;50.912;9.242;2022-07-29T01:04:15;99069.81;;;27.01
64624;BMP280;51031;50.912;9.242;2022-07-29T01:04:31;99072.50;;;27.01
64624;BMP280;51031;50.912;9.242;2022-07-29T01:04:49;99065.25;;;27.01
64624;BMP280;51031;50.912;9.242;2022-07-29T01:05:06;99069.81;;;27.01
64624;BMP280;51031;50.912;9.242;2022-07-29T01:05:25;99069.81;;;27.01
64624;BMP280;51031;50.912;9.242;2022-07-29T01:05:43;99073.31;;;27.01
64624;BMP280;51031;50.912;9.242;2022-07-29T01:06:00;99067.78;;;27.02
64624;BMP280;51031;50.912;9.242;2022-07-29T01:06:16;99072.13;;;27.03
64624;BMP280;51031;50.912;9.242;2022-07-29T01:06:34;99067.59;;;27.04
64624;BMP280;51031;50.912;9.242;2022-07-29T01:06:51;99074.47;;;27.06
64624;BMP280;51031;50.912;9.242;2022-07-29T01:07:07;99061.84;;;27.07
64624;BMP280;51031;50.912;9.242;2022-07-29T01:07:24;99068.06;;;27.07
64624;BMP280;51031;50.912;9.242;2022-07-29T01:07:44;99067.88;;;27.09
64624;BMP280;51031;50.912;9.242;2022-07-29T01:08:02;99064.34;;;27.08
64624;BMP280;51031;50.912;9.242;2022-07-29T01:08:18;99070.75;;;27.07
64624;BMP280;51031;50.912;9.242;2022-07-29T01:08:35;99064.53;;;27.07
64624;BMP280;51031;50.912;9.242;2022-07-29T01:08:52;99070.09;;;27.05
64624;BMP280;51031;50.912;9.242;2022-07-29T01:09:08;99063.88;;;27.05
64624;BMP280;51031;50.912;9.242;2022-07-29T01:09:25;99064.72;;;27.05
64624;BMP280;51031;50.912;9.242;2022-07-29T01:09:42;99069.25;;;27.05
64624;BMP280;51031;50.912;9.242;2022-07-29T01:09:59;99070.94;;;27.06
64624;BMP280;51031;50.912;9.242;2022-07-29T01:10:16;99065.38;;;27.07
64624;BMP280;51031;50.912;9.242;2022-07-29T01:10:36;99066.38;;;27.06
64624;BMP280;51031;50.912;9.242;2022-07-29T01:10:52;99062.69;;;27.07
64624;BMP280;51031;50.912;9.242;2022-07-29T01:11:10;99064.53;;;27.07
64624;BMP280;51031;50.912;9.242;2022-07-29T01:11:27;99063.69;;;27.06
64624;BMP280;51031;50.912;9.242;2022-07-29T01:11:43;99060.81;;;27.08
64624;BMP280;51031;50.912;9.242;2022-07-29T01:12:01;99064.34;;;27.08
64624;BMP280;51031;50.912;9.242;2022-07-29T01:12:22;99067.03;;;27.08
64624;BMP280;51031;50.912;9.242;2022-07-29T01:12:39;99066.19;;;27.08
64624;BMP280;51031;50.912;9.242;2022-07-29T01:12:57;99067.03;;;27.08
64624;BMP280;51031;50.912;9.242;2022-07-29T01:13:14;99058.78;;;27.10
64624;BMP280;51031;50.912;9.242;2022-07-29T01:13:32;99056.94;;;27.10
64624;BMP280;51031;50.912;9.242;2022-07-29T01:13:51;99057.75;;;27.11
64624;BMP280;51031;50.912;9.242;2022-07-29T01:14:08;99056.25;;;27.08
64624;BMP280;51031;50.912;9.242;2022-07-29T01:14:25;99061.66;;;27.08
64624;BMP280;51031;50.912;9.242;2022-07-29T01:14:41;99057.28;;;27.07
64624;BMP280;51031;50.912;9.242;2022-07-29T01:14:58;99063.50;;;27.08
64624;BMP280;51031;50.912;9.242;2022-07-29T01:15:18;99059.97;;;27.07
64624;BMP280;51031;50.912;9.242;2022-07-29T01:15:43;99052.94;;;27.06
64624;BMP280;51031;50.912;9.242;2022-07-29T01:16:04;99063.69;;;27.06
64624;BMP280;51031;50.912;9.242;2022-07-29T01:16:29;99063.88;;;27.05
64624;BMP280;51031;50.912;9.242;2022-07-29T01:16:51;99061.19;;;27.05
64624;BMP280;51031;50.912;9.242;2022-07-29T01:17:12;99063.88;;;27.05
64624;BMP280;51031;50.912;9.242;2022-07-29T01:17:33;99056.66;;;27.05
64624;BMP280;51031;50.912;9.242;2022-07-29T01:17:58;99063.69;;;27.06
64624;BMP280;51031;50.912;9.242;2022-07-29T01:18:20;99062.03;;;27.05
64624;BMP280;51031;50.912;9.242;2022-07-29T01:18:42;99058.69;;;27.03
64624;BMP280;51031;50.912;9.242;2022-07-29T01:19:04;99057.03;;;27.02
64624;BMP280;51031;50.912;9.242;2022-07-29T01:19:40;99064.44;;;27.01
64624;BMP280;51031;50.912;9.242;2022-07-29T01:20:03;99057.38;;;27.00
64624;BMP280;51031;50.912;9.242;2022-07-29T01:20:31;99068.16;;;27.00
64624;BMP280;51031;50.912;9.242;2022-07-29T01:21:03;99058.41;;;26.99
64624;BMP280;51031;50.912;9.242;2022-07-29T01:21:40;99064.16;;;26.96
64624;BMP280;51031;50.912;9.242;2022-07-29T01:22:13;99059.78;;;26.95
64624;BMP280;51031;50.912;9.242;2022-07-29T01:24:02;99059.50;;;26.90
64624;BMP280;51031;50.912;9.242;2022-07-29T01:24:41;99070.06;;;26.91
64624;BMP280;51031;50.912;9.242;2022-07-29T01:25:19;99069.59;;;26.88
64624;BMP280;51031;50.912;9.242;2022-07-29T01:26:47;99052.63;;;26.87
64624;BMP280;51031;50.912;9.242;2022-07-29T01:27:15;99061.53;;;26.88
64624;BMP280;51031;50.912;9.242;2022-07-29T01:27:44;99052.63;;;26.87
64624;BMP280;51031;50.912;9.242;2022-07-29T01:28:31;99057.84;;;26.89
64624;BMP280;51031;50.912;9.242;2022-07-29T01:29:01;99056.81;;;26.90
64624;BMP280;51031;50.912;9.242;2022-07-29T01:29:22;99055.16;;;26.89
64624;BMP280;51031;50.912;9.242;2022-07-29T01:29:44;99053.28;;;26.89
64624;BMP280;51031;50.912;9.242;2022-07-29T01:30:02;99056.16;;;26.88
64624;BMP280;51031;50.912;9.242;2022-07-29T01:30:18;99048.09;;;26.88
64624;BMP280;51031;50.912;9.242;2022-07-29T01:30:35;99052.47;;;26.89
64624;BMP280;51031;50.912;9.242;2022-07-29T01:30:54;99060.53;;;26.89
64624;BMP280;51031;50.912;9.242;2022-07-29T01:31:11;99055.16;;;26.89
64624;BMP280;51031;50.912;9.242;2022-07-29T01:31:35;99053.09;;;26.91
64624;BMP280;51031;50.912;9.242;2022-07-29T01:31:55;99053.09;;;26.91
64624;BMP280;51031;50.912;9.242;2022-07-29T01:32:14;99054.78;;;26.92
64624;BMP280;51031;50.912;9.242;2022-07-29T01:32:33;99059.16;;;26.93
64624;BMP280;51031;50.912;9.242;2022-07-29T01:32:54;99050.25;;;26.92
64624;BMP280;51031;50.912;9.242;2022-07-29T01:33:15;99045.69;;;26.93
64624;BMP280;51031;50.912;9.242;2022-07-29T01:33:54;99050.03;;;26.94
64624;BMP280;51031;50.912;9.242;2022-07-29T01:34:18;99052.38;;;26.97
64624;BMP280;51031;50.912;9.242;2022-07-29T01:34:39;99047.00;;;26.97
64624;BMP280;51031;50.912;9.242;2022-07-29T01:35:02;99053.03;;;26.99
64624;BMP280;51031;50.912;9.242;2022-07-29T01:35:21;99050.97;;;27.01
64624;BMP280;51031;50.912;9.242;2022-07-29T01:35:40;99039.19;;;27.01
64624;BMP280;51031;50.912;9.242;2022-07-29T01:35:58;99047.25;;;27.01
64624;BMP280;51031;50.912;9.242;2022-07-29T01:36:17;99042.75;;;27.02
64624;BMP280;51031;50.912;9.242;2022-07-29T01:36:36;99047.25;;;27.01
64624;BMP280;51031;50.912;9.242;2022-07-29T01:36:57;99040.06;;;27.02
64624;BMP280;51031;50.912;9.242;2022-07-29T01:37:20;99042.91;;;27.01
64624;BMP280;51031;50.912;9.242;2022-07-29T01:37:39;99044.78;;;27.00
64624;BMP280;51031;50.912;9.242;2022-07-29T01:38:01;99042.44;;;26.97
64624;BMP280;51031;50.912;9.242;2022-07-29T01:38:21;99048.84;;;26.96
64624;BMP280;51031;50.912;9.242;2022-07-29T01:38:41;99042.81;;;26.94
64624;BMP280;51031;50.912;9.242;2022-07-29T01:39:05;99041.16;;;26.93
64624;BMP280;51031;50.912;9.242;2022-07-29T01:39:26;99042.19;;;26.92
64624;BMP280;51031;50.912;9.242;2022-07-29T01:39:43;99041.34;;;26.92
64624;BMP280;51031;50.912;9.242;2022-07-29T01:40:02;99039.66;;;26.91
64624;BMP280;51031;50.912;9.242;2022-07-29T01:40:22;99036.97;;;26.91
64624;BMP280;51031;50.912;9.242;2022-07-29T01:40:45;99032.41;;;26.91
64624;BMP280;51031;50.912;9.242;2022-07-29T01:41:05;99047.72;;;26.91
64624;BMP280;51031;50.912;9.242;2022-07-29T01:41:22;99045.41;;;26.88
64624;BMP280;51031;50.912;9.242;2022-07-29T01:41:46;99033.34;;;26.84
64624;BMP280;51031;50.912;9.242;2022-07-29T01:42:10;99036.22;;;26.82
64624;BMP280;51031;50.912;9.242;2022-07-29T01:42:32;99037.22;;;26.81
64624;BMP280;51031;50.912;9.242;2022-07-29T01:42:51;99034.72;;;26.80
64624;BMP280;51031;50.912;9.242;2022-07-29T01:43:13;99040.09;;;26.80
64624;BMP280;51031;50.912;9.242;2022-07-29T01:43:41;99041.13;;;26.79
64624;BMP280;51031;50.912;9.242;2022-07-29T01:44:02;99043.16;;;26.77
64624;BMP280;51031;50.912;9.242;2022-07-29T01:44:29;99035.91;;;26.77
64624;BMP280;51031;50.912;9.242;2022-07-29T01:44:53;99036.75;;;26.78
64624;BMP280;51031;50.912;9.242;2022-07-29T01:45:15;99037.63;;;26.78
64624;BMP280;51031;50.912;9.242;2022-07-29T01:45:37;99036.75;;;26.78
64624;BMP280;51031;50.912;9.242;2022-07-29T01:45:58;99034.94;;;26.78
64624;BMP280;51031;50.912;9.242;2022-07-29T01:46:20;99049.19;;;26.79
64624;BMP280;51031;50.912;9.242;2022-07-29T01:46:38;99042.13;;;26.78
64624;BMP280;51031;50.912;9.242;2022-07-29T01:47:02;99041.13;;;26.79
64624;BMP280;51031;50.912;9.242;2022-07-29T01:47:22;99039.28;;;26.79
64624;BMP280;51031;50.912;9.242;2022-07-29T01:47:43;99045.47;;;26.80